Time;durP1;ratioP1;P1;durP2;ratioP2;P2;SDS_P1;SDS_P2;PMS_P1;PMS_P2;Temp;Humidity;BMP_temperature;BMP_pressure;BME280_temperature;BME280_humidity;BME280_pressure;Samples;Min_cycle;Max_cycle;Signal;HPM_P1;HPM_P2
2023/08/22 00:01:58;;;;;;;;;1.00;1.00;;;;;23.98;47.07;101593.97;5120047;27;56845;-76
2023/08/22 00:04:24;;;;;;;;;1.00;1.00;;;;;23.95;47.08;101581.66;5119158;27;45333;-77
2023/08/22 00:06:49;;;;;;;;;1.00;1.00;;;;;24.00;47.42;101582.91;5120486;27;45181;-74
2023/08/22 00:09:16;;;;;;;;;2.00;1.00;;;;;24.00;47.42;101577.47;5120368;27;45323;-74
2023/08/22 00:11:42;;;;;;;;;0.75;0.75;;;;;23.93;47.35;101572.06;5120439;27;46571;-76
2023/08/22 00:14:07;;;;;;;;;1.00;1.00;;;;;23.96;47.30;101577.91;5120527;27;45296;-75
2023/08/22 00:16:33;;;;;;;;;0.00;0.00;;;;;23.88;47.64;101558.28;5121105;27;45432;-77
2023/08/22 00:18:58;;;;;;;;;1.00;1.00;;;;;23.81;47.52;101554.72;5121432;27;45289;-75
2023/08/22 00:21:24;;;;;;;;;1.25;1.00;;;;;23.92;47.43;101571.22;5120007;27;45851;-75
2023/08/22 00:23:49;;;;;;;;;1.00;1.00;;;;;23.84;47.80;101568.75;5118933;27;45421;-75
2023/08/22 00:26:14;;;;;;;;;1.25;1.25;;;;;23.78;48.27;101561.44;5120327;27;45262;-76
2023/08/22 00:28:40;;;;;;;;;2.50;1.00;;;;;23.83;48.21;101567.09;5119837;27;52959;-77
2023/08/22 00:31:05;;;;;;;;;0.50;0.50;;;;;23.71;47.91;101552.47;5119932;27;46488;-77
2023/08/22 00:33:30;;;;;;;;;0.00;0.00;;;;;23.73;47.90;101555.81;5120268;27;45400;-75
2023/08/22 00:35:55;;;;;;;;;1.25;1.00;;;;;23.67;48.49;101556.66;5118407;27;48569;-76
2023/08/22 00:38:21;;;;;;;;;2.00;0.50;;;;;23.77;48.31;101565.19;5120617;27;45227;-76
2023/08/22 00:40:46;;;;;;;;;1.00;1.00;;;;;23.62;48.00;101570.84;5119753;27;45833;-75
2023/08/22 00:43:11;;;;;;;;;0.25;0.25;;;;;23.58;48.66;101564.16;5120388;27;45299;-77
2023/08/22 00:45:37;;;;;;;;;0.00;0.00;;;;;23.53;48.66;101554.94;5119382;27;45561;-75
2023/08/22 00:48:03;;;;;;;;;1.25;1.25;;;;;23.49;48.48;101554.53;5120340;27;45405;-76
2023/08/22 00:50:29;;;;;;;;;1.75;1.75;;;;;23.53;48.73;101573.94;5118197;27;47635;-74
2023/08/22 00:52:55;;;;;;;;;0.25;0.25;;;;;23.24;48.57;101519.06;5119705;27;45480;-77
2023/08/22 00:55:20;;;;;;;;;1.00;1.00;;;;;23.51;48.61;101563.31;5119818;27;45301;-75
2023/08/22 00:57:46;;;;;;;;;1.75;1.75;;;;;23.48;48.91;101557.47;5118791;27;45534;-75
2023/08/22 01:00:11;;;;;;;;;5.67;5.67;;;;;23.21;48.86;101516.75;5119654;27;45662;-75
2023/08/22 01:02:40;;;;;;;;;2.00;1.00;;;;;23.54;49.03;101564.75;5119262;27;45384;-75
2023/08/22 01:05:07;;;;;;;;;0.75;0.75;;;;;23.15;49.28;101503.19;5119696;27;45512;-76
2023/08/22 01:07:58;;;;;;;;;0.00;0.00;;;;;23.47;49.46;101572.09;5119768;27;45323;-76
2023/08/22 01:10:36;;;;;;;;;1.00;1.00;;;;;23.42;49.03;101552.84;5120749;27;45490;-76
2023/08/22 01:13:14;;;;;;;;;1.00;1.00;;;;;23.41;49.35;101551.19;5120029;27;45441;-76
2023/08/22 01:15:41;;;;;;;;;3.00;1.75;;;;;23.12;49.43;101499.03;5119575;27;45424;-76
2023/08/22 01:18:07;;;;;;;;;1.25;0.00;;;;;23.06;49.31;101491.72;5119424;27;45616;-74
2023/08/22 01:20:34;;;;;;;;;1.50;1.50;;;;;23.35;49.19;101539.28;5117756;27;47639;-75
2023/08/22 01:23:00;;;;;;;;;2.00;2.00;;;;;23.40;49.31;101554.94;5119414;27;45465;-74
2023/08/22 01:25:27;;;;;;;;;1.75;1.75;;;;;23.32;49.33;101540.56;5119621;27;45268;-73
2023/08/22 01:28:26;;;;;;;;;1.00;1.00;;;;;23.41;49.39;101551.19;5118252;27;45434;-75
2023/08/22 01:31:02;;;;;;;;;2.00;1.75;;;;;23.29;49.59;101543.69;5119070;27;45860;-75
2023/08/22 01:33:33;;;;;;;;;1.00;0.75;;;;;22.48;49.48;101407.38;5119158;27;45211;-75
2023/08/22 01:35:59;;;;;;;;;1.50;1.50;;;;;23.23;49.68;101533.69;5119855;27;45446;-73
2023/08/22 01:38:27;;;;;;;;;1.75;1.75;;;;;23.29;49.90;101543.69;5120379;27;45476;-76
2023/08/22 01:40:53;;;;;;;;;2.00;1.00;;;;;23.26;49.46;101532.41;5118872;27;46448;-76
2023/08/22 01:43:19;;;;;;;;;0.25;0.25;;;;;23.32;49.64;101539.72;5119405;27;45406;-75
2023/08/22 01:45:44;;;;;;;;;1.00;1.00;;;;;23.26;49.75;101522.41;5119297;27;45334;-74
2023/08/22 01:48:10;;;;;;;;;1.25;1.25;;;;;23.25;49.07;101520.75;5118801;27;45361;-75
2023/08/22 01:50:35;;;;;;;;;0.50;0.50;;;;;23.35;49.61;101529.28;5118815;27;47682;-75
2023/08/22 01:53:00;;;;;;;;;3.00;2.00;;;;;23.35;49.28;101537.41;5118941;27;45438;-74
2023/08/22 01:55:26;;;;;;;;;1.00;1.00;;;;;23.32;49.34;101526.97;5118749;27;46047;-74
2023/08/22 01:57:51;;;;;;;;;1.00;1.00;;;;;23.34;49.12;101533.03;5118868;27;45407;-75
2023/08/22 02:00:17;;;;;;;;;2.25;1.25;;;;;23.27;49.58;101513.22;5118423;27;45713;-75
2023/08/22 02:02:42;;;;;;;;;2.00;1.00;;;;;23.27;49.29;101524.06;5118086;27;45585;-76
2023/08/22 02:05:07;;;;;;;;;1.75;1.00;;;;;23.25;49.28;101520.75;5120024;27;45243;-74
2023/08/22 02:07:36;;;;;;;;;2.00;1.00;;;;;23.27;49.76;101510.50;5119118;27;45440;-76
2023/08/22 02:10:03;;;;;;;;;0.75;0.50;;;;;23.24;49.74;101505.50;5116910;27;48444;-75
2023/08/22 02:12:29;;;;;;;;;2.00;2.00;;;;;23.28;49.53;101520.31;5118292;27;45405;-77
2023/08/22 02:14:54;;;;;;;;;1.25;1.25;;;;;23.28;49.74;101514.06;5116968;27;45650;-75
2023/08/22 02:17:20;;;;;;;;;0.25;0.25;;;;;23.27;49.71;101513.22;5115724;27;45545;-75
2023/08/22 02:19:46;;;;;;;;;2.25;2.00;;;;;23.30;49.69;101518.22;5118152;27;46035;-76
2023/08/22 02:22:11;;;;;;;;;1.00;1.00;;;;;23.03;49.44;101481.28;5117974;27;45266;-77
2023/08/22 02:24:36;;;;;;;;;0.00;0.00;;;;;23.19;49.66;101515.28;5117089;27;45599;-74
2023/08/22 02:27:03;;;;;;;;;2.25;2.25;;;;;23.18;50.33;101525.31;5118544;27;45352;-75
2023/08/22 02:29:29;;;;;;;;;1.25;1.00;;;;;23.11;50.33;101523.66;5118095;27;45524;-76
2023/08/22 02:31:55;;;;;;;;;2.00;2.00;;;;;23.05;50.46;101519.88;5118953;27;45417;-75
2023/08/22 02:34:21;;;;;;;;;2.00;1.00;;;;;23.03;50.48;101513.84;5118769;27;45302;-76
2023/08/22 02:36:46;;;;;;;;;1.00;1.00;;;;;23.05;50.43;101503.63;5118131;27;45502;-74
2023/08/22 02:39:12;;;;;;;;;2.00;2.00;;;;;23.03;50.40;101489.44;5116435;27;47101;-74
2023/08/22 02:41:37;;;;;;;;;1.00;1.00;;;;;22.87;50.18;101468.13;5117749;27;45310;-75
2023/08/22 02:44:03;;;;;;;;;2.00;1.00;;;;;23.01;50.68;101491.50;5118212;27;45760;-74
2023/08/22 02:46:28;;;;;;;;;1.75;1.50;;;;;23.07;50.53;101501.53;5118112;27;45259;-75
2023/08/22 02:48:53;;;;;;;;;1.00;1.00;;;;;23.09;50.81;101494.00;5117684;27;49773;-75
2023/08/22 02:51:18;;;;;;;;;0.00;0.00;;;;;23.02;50.92;101495.88;5117822;27;45458;-74
2023/08/22 02:53:44;;;;;;;;;1.00;1.00;;;;;23.01;50.61;101503.16;5117671;27;51203;-75
2023/08/22 02:56:10;;;;;;;;;1.00;1.00;;;;;22.95;50.75;101492.31;5118206;27;45517;-75
2023/08/22 02:58:36;;;;;;;;;2.25;2.25;;;;;22.91;50.83;101491.09;5117488;27;46741;-73
2023/08/22 03:01:04;;;;;;;;;1.00;1.00;;;;;23.03;50.88;101506.53;5117869;27;45324;-74
2023/08/22 03:03:30;;;;;;;;;3.00;3.00;;;;;22.97;50.96;101498.38;5117961;27;45310;-75
2023/08/22 03:05:57;;;;;;;;;1.00;1.00;;;;;22.91;50.78;101491.91;5117949;27;45364;-76
2023/08/22 03:08:23;;;;;;;;;2.00;2.00;;;;;22.85;51.10;101492.75;5117669;27;46564;-76
2023/08/22 03:10:48;;;;;;;;;1.00;1.00;;;;;22.92;50.85;101509.00;5117558;27;46572;-75
2023/08/22 03:13:13;;;;;;;;;2.00;2.00;;;;;22.91;51.12;101502.75;5118414;27;45435;-75
2023/08/22 03:15:39;;;;;;;;;2.00;2.00;;;;;22.94;51.07;101502.34;5118557;27;45522;-74
2023/08/22 03:18:04;;;;;;;;;1.00;1.00;;;;;22.71;51.38;101462.03;5117090;27;45619;-74
2023/08/22 03:20:30;;;;;;;;;1.00;1.00;;;;;22.99;51.37;101510.69;5117464;27;45321;-75
2023/08/22 03:22:55;;;;;;;;;0.00;0.00;;;;;23.01;51.43;101508.59;5117750;27;45303;-75
2023/08/22 03:25:21;;;;;;;;;1.00;1.00;;;;;22.86;51.54;101493.59;5119582;27;45456;-74
2023/08/22 03:27:46;;;;;;;;;1.00;1.00;;;;;22.99;51.21;101499.84;5118162;27;45628;-74
2023/08/22 03:30:11;;;;;;;;;2.00;2.00;;;;;22.97;51.75;101501.09;5120420;27;45415;-75
2023/08/22 03:32:37;;;;;;;;;2.00;2.00;;;;;22.86;51.80;101486.28;5120953;27;45591;-76
2023/08/22 03:35:03;;;;;;;;;2.00;1.00;;;;;22.78;51.55;101487.25;5121325;27;45396;-74
2023/08/22 03:37:32;;;;;;;;;2.00;2.00;;;;;22.86;51.70;101499.00;5120983;27;46244;-74
2023/08/22 03:39:58;;;;;;;;;1.25;1.25;;;;;22.73;51.83;101484.34;5120980;27;45299;-74
2023/08/22 03:42:23;;;;;;;;;2.25;1.25;;;;;22.74;52.06;101494.16;5119376;27;46870;-74
2023/08/22 03:44:49;;;;;;;;;1.50;1.50;;;;;22.82;52.01;101500.44;5121509;27;45456;-74
2023/08/22 03:47:14;;;;;;;;;1.00;1.00;;;;;22.66;52.14;101479.97;5120776;27;45576;-75
2023/08/22 03:49:39;;;;;;;;;1.00;1.00;;;;;22.71;52.15;101491.00;5119537;27;45316;-75
2023/08/22 03:52:05;;;;;;;;;3.25;2.00;;;;;22.77;52.34;101496.44;5121028;27;45464;-76
2023/08/22 03:54:31;;;;;;;;;1.50;1.50;;;;;22.82;52.28;101503.16;5120136;27;45335;-74
2023/08/22 03:56:56;;;;;;;;;2.75;2.00;;;;;22.86;51.71;101507.97;5119797;27;47574;-74
2023/08/22 03:59:22;;;;;;;;;2.00;2.00;;;;;22.83;51.91;101499.44;5120494;27;45459;-76
2023/08/22 04:01:47;;;;;;;;;2.00;2.00;;;;;22.88;51.66;101507.75;5120430;27;45374;-74
2023/08/22 04:04:14;;;;;;;;;1.50;1.00;;;;;22.86;51.87;101496.28;5120909;27;45361;-74
2023/08/22 04:06:41;;;;;;;;;1.00;1.00;;;;;22.93;51.75;101502.56;5120379;27;45822;-75
2023/08/22 04:09:06;;;;;;;;;2.00;2.00;;;;;22.63;51.64;101443.28;5120494;27;45401;-73
2023/08/22 04:11:32;;;;;;;;;2.00;2.00;;;;;22.90;51.32;101478.56;5120762;27;45468;-74
2023/08/22 04:13:57;;;;;;;;;1.00;1.00;;;;;22.99;51.33;101499.84;5120777;27;45360;-75
2023/08/22 04:16:22;;;;;;;;;2.67;2.67;;;;;22.74;51.52;101453.47;5118479;27;52602;-76
2023/08/22 04:18:47;;;;;;;;;3.00;2.00;;;;;23.01;51.59;101495.03;5120676;27;60127;-75
2023/08/22 04:21:13;;;;;;;;;1.25;1.25;;;;;23.00;51.37;101506.09;5121317;27;45520;-75
2023/08/22 04:23:38;;;;;;;;;4.00;2.25;;;;;22.95;51.60;101489.63;5120865;27;45459;-76
2023/08/22 04:26:03;;;;;;;;;1.75;1.25;;;;;22.78;51.60;101465.56;5120149;27;45529;-73
2023/08/22 04:28:29;;;;;;;;;2.00;2.00;;;;;22.89;52.03;101488.56;5120386;27;45465;-74
2023/08/22 04:30:59;;;;;;;;;2.50;2.00;;;;;22.96;52.22;101510.25;5119937;27;45349;-75
2023/08/22 04:33:24;;;;;;;;;2.00;2.00;;;;;22.68;52.30;101469.75;5120335;27;45254;-76
2023/08/22 04:35:49;;;;;;;;;2.00;0.50;;;;;22.90;52.22;101511.09;5118351;27;53443;-74
2023/08/22 04:38:15;;;;;;;;;3.50;3.50;;;;;22.88;52.23;101507.75;5118556;27;45428;-74
2023/08/22 04:40:42;;;;;;;;;5.00;2.00;;;;;22.93;51.99;101516.09;5117770;27;45733;-75
2023/08/22 04:43:08;;;;;;;;;1.50;1.50;;;;;22.86;52.23;101515.28;5118991;27;45507;-75
2023/08/22 04:45:33;;;;;;;;;3.50;3.50;;;;;22.80;52.42;101499.78;5119964;27;46496;-74
2023/08/22 04:47:58;;;;;;;;;1.00;1.00;;;;;22.79;52.77;101504.38;5119756;27;45495;-76
2023/08/22 04:50:24;;;;;;;;;3.00;2.00;;;;;22.83;52.18;101499.44;5118997;27;45358;-74
2023/08/22 04:52:50;;;;;;;;;2.75;2.75;;;;;22.83;52.44;101505.69;5121445;27;45376;-75
2023/08/22 04:55:15;;;;;;;;;3.75;2.25;;;;;22.88;52.30;101515.91;5119562;27;45668;-74
2023/08/22 04:57:41;;;;;;;;;1.00;1.00;;;;;22.80;52.07;101483.50;5119741;27;45429;-76
2023/08/22 05:00:09;;;;;;;;;3.25;2.00;;;;;22.89;52.35;101514.84;5119594;27;46221;-74
2023/08/22 05:02:35;;;;;;;;;3.00;3.00;;;;;22.55;52.43;101458.88;5119767;27;45459;-73
2023/08/22 05:05:01;;;;;;;;;2.00;2.00;;;;;22.72;52.26;101496.22;5119547;27;45621;-74
2023/08/22 05:07:26;;;;;;;;;1.50;1.50;;;;;22.86;52.15;101515.28;5119576;27;45442;-76
2023/08/22 05:09:51;;;;;;;;;2.00;2.00;;;;;22.72;52.32;101498.09;5119892;27;45205;-76
2023/08/22 05:12:17;;;;;;;;;3.00;3.00;;;;;22.67;52.15;101490.59;5118408;27;51901;-74
2023/08/22 05:14:42;;;;;;;;;1.25;1.25;;;;;22.87;52.68;101516.94;5119513;27;45492;-74
2023/08/22 05:17:07;;;;;;;;;2.00;2.00;;;;;22.78;52.47;101525.22;5117658;27;45330;-74
2023/08/22 05:19:33;;;;;;;;;3.67;3.67;;;;;22.68;52.57;101502.28;5119737;27;45339;-75
2023/08/22 05:21:58;;;;;;;;;3.33;3.33;;;;;22.80;52.73;101516.03;5118160;27;45665;-74
2023/08/22 05:24:23;;;;;;;;;2.00;2.00;;;;;22.46;52.72;101471.78;5119179;27;46353;-75
2023/08/22 05:26:48;;;;;;;;;1.50;1.50;;;;;22.80;52.68;101537.72;5117843;27;46441;-74
2023/08/22 05:29:14;;;;;;;;;6.00;3.50;;;;;22.83;52.60;101531.97;5117876;27;45404;-74
2023/08/22 05:31:39;;;;;;;;;2.50;2.00;;;;;22.80;52.43;101516.88;5119068;27;45445;-73
2023/08/22 05:34:05;;;;;;;;;3.75;2.00;;;;;22.86;52.48;101516.09;5119116;27;46618;-75
2023/08/22 05:36:30;;;;;;;;;1.25;1.25;;;;;22.96;52.48;101540.09;5118897;27;45289;-73
2023/08/22 05:38:55;;;;;;;;;2.75;2.50;;;;;23.04;52.18;101542.63;5119370;27;45407;-75
2023/08/22 05:41:21;;;;;;;;;2.75;2.75;;;;;22.81;52.25;101506.88;5120229;27;45314;-72
2023/08/22 05:43:46;;;;;;;;;2.00;2.00;;;;;23.11;52.27;101554.31;5118307;27;47543;-74
2023/08/22 05:46:11;;;;;;;;;5.25;3.00;;;;;22.82;52.30;101508.56;5118472;27;47675;-75
2023/08/22 05:48:37;;;;;;;;;5.00;5.00;;;;;23.00;52.35;101530.50;5118535;27;45611;-73
2023/08/22 05:51:02;;;;;;;;;2.25;2.25;;;;;23.02;51.94;101520.28;5117613;27;45476;-74
2023/08/22 05:53:28;;;;;;;;;2.00;2.00;;;;;23.12;51.86;101542.41;5118693;27;46399;-74
2023/08/22 05:55:53;;;;;;;;;3.75;3.75;;;;;23.18;52.18;101535.31;5118767;27;45294;-74
2023/08/22 05:58:19;;;;;;;;;4.33;3.33;;;;;23.11;52.40;101538.03;5118881;27;45435;-74
2023/08/22 06:00:44;;;;;;;;;3.75;3.00;;;;;23.05;52.44;101547.00;5117548;27;45607;-74
2023/08/22 06:03:10;;;;;;;;;5.00;4.00;;;;;22.99;52.45;101548.66;5116684;27;47413;-73
2023/08/22 06:05:35;;;;;;;;;2.67;2.67;;;;;22.95;52.73;101544.69;5118901;27;45476;-74
2023/08/22 06:08:00;;;;;;;;;4.00;3.00;;;;;23.12;52.85;101547.84;5117432;27;48523;-75
2023/08/22 06:10:26;;;;;;;;;3.25;3.25;;;;;23.23;52.16;101543.69;5118663;27;45539;-74
2023/08/22 06:12:51;;;;;;;;;3.00;2.50;;;;;23.30;51.82;101560.81;5118418;27;46814;-74
2023/08/22 06:15:16;;;;;;;;;3.00;3.00;;;;;23.48;51.94;101577.31;5118350;27;45508;-75
2023/08/22 06:17:42;;;;;;;;;4.00;3.25;;;;;23.40;51.67;101558.50;5117638;27;50495;-74
2023/08/22 06:20:07;;;;;;;;;3.75;2.50;;;;;23.48;51.32;101563.72;5118814;27;45509;-75
2023/08/22 06:22:34;;;;;;;;;5.00;4.00;;;;;23.47;51.13;101563.94;5116856;27;46865;-76
2023/08/22 06:24:59;;;;;;;;;4.00;3.50;;;;;23.35;51.04;101542.00;5118091;27;51923;-75
2023/08/22 06:27:25;;;;;;;;;3.00;3.00;;;;;23.74;50.96;101586.50;5118651;27;45377;-76
2023/08/22 06:29:50;;;;;;;;;3.25;3.25;;;;;23.89;50.71;101584.41;5097792;27;45719;-72
2023/08/22 06:32:15;;;;;;;;;2.50;2.50;;;;;23.75;50.43;101537.41;5095195;27;58041;-72
2023/08/22 06:34:41;;;;;;;;;4.00;4.00;;;;;24.15;50.43;101586.22;5096729;27;45584;-72
2023/08/22 06:37:06;;;;;;;;;5.00;5.00;;;;;24.27;50.18;101581.81;5097100;27;45298;-72
2023/08/22 06:39:33;;;;;;;;;4.00;3.00;;;;;24.01;49.52;101541.09;5095890;27;45516;-71
2023/08/22 06:41:58;;;;;;;;;3.75;3.00;;;;;24.21;49.68;101586.19;5096551;27;46429;-72
2023/08/22 06:44:23;;;;;;;;;6.00;5.00;;;;;24.23;50.40;101583.28;5097297;27;45338;-71
2023/08/22 06:46:49;;;;;;;;;4.50;4.50;;;;;24.57;49.69;101573.97;5097220;27;45452;-72
2023/08/22 06:49:14;;;;;;;;;8.33;5.33;;;;;25.00;48.39;101565.19;5100875;27;45264;-72
2023/08/22 06:51:39;;;;;;;;;4.75;4.75;;;;;25.68;47.54;101576.22;5105343;27;56547;-73
2023/08/22 06:54:05;;;;;;;;;3.00;3.00;;;;;25.97;45.83;101536.50;5096868;27;47800;-72
2023/08/22 06:56:30;;;;;;;;;2.75;2.75;;;;;26.20;45.14;101511.28;5095550;27;45280;-72
2023/08/22 06:58:55;;;;;;;;;3.33;3.00;;;;;26.76;44.29;101557.34;5097431;27;45495;-72
2023/08/22 07:01:21;;;;;;;;;3.75;2.75;;;;;26.95;43.90;101567.16;5096036;27;48347;-72
2023/08/22 07:03:46;;;;;;;;;4.67;4.67;;;;;27.08;43.85;101577.09;5098077;27;45345;-73
2023/08/22 07:06:12;;;;;;;;;3.00;3.00;;;;;26.96;43.66;101554.34;5099319;27;45417;-73
2023/08/22 07:08:37;;;;;;;;;3.33;3.33;;;;;27.26;43.57;101578.91;5083109;27;45306;-71
2023/08/22 07:11:03;;;;;;;;;4.00;4.00;;;;;27.12;43.30;101544.69;5079392;27;55584;-72
2023/08/22 07:13:29;;;;;;;;;3.00;2.00;;;;;27.20;43.09;101533.41;5080014;27;45432;-72
2023/08/22 07:15:55;;;;;;;;;3.00;3.00;;;;;27.70;42.32;101571.25;5078579;28;45287;-72
2023/08/22 07:18:20;;;;;;;;;4.00;4.00;;;;;28.04;41.49;101575.06;5080257;27;45326;-72
2023/08/22 07:20:46;;;;;;;;;6.00;4.75;;;;;28.41;41.15;101581.88;5112342;27;46289;-73
2023/08/22 07:23:12;;;;;;;;;9.67;6.00;;;;;28.83;40.54;101572.56;5120773;27;45357;-72
2023/08/22 07:25:38;;;;;;;;;5.67;4.67;;;;;29.29;39.55;101583.31;5115667;27;45429;-72
2023/08/22 07:28:03;;;;;;;;;4.33;4.33;;;;;29.39;38.34;101580.72;5105636;27;45274;-73
2023/08/22 07:30:29;;;;;;;;;4.00;4.00;;;;;29.27;38.35;101562.72;5103968;27;46481;-72
2023/08/22 07:32:54;;;;;;;;;4.00;3.50;;;;;29.52;39.05;101578.78;5099846;27;45338;-72
2023/08/22 07:35:19;;;;;;;;;7.33;6.00;;;;;29.83;38.08;101572.66;5100224;27;45334;-72
2023/08/22 07:37:45;;;;;;;;;3.25;3.25;;;;;30.25;37.20;101566.69;5100055;27;50538;-73
2023/08/22 07:40:11;;;;;;;;;5.33;5.00;;;;;30.67;36.56;101577.09;5099759;27;46415;-72
2023/08/22 07:42:36;;;;;;;;;6.67;6.00;;;;;30.97;35.91;101555.44;5100012;27;45402;-72
2023/08/22 07:45:03;;;;;;;;;9.00;7.67;;;;;31.54;34.87;101573.25;5100166;27;45207;-72
2023/08/22 07:47:29;;;;;;;;;3.00;3.00;;;;;31.82;33.89;101572.91;5100143;27;45461;-73
2023/08/22 07:49:54;;;;;;;;;3.67;2.67;;;;;32.03;33.72;101579.34;5099976;27;46135;-72
2023/08/22 07:52:20;;;;;;;;;4.67;4.00;;;;;32.41;33.50;101574.59;5098589;27;46370;-74
2023/08/22 07:54:45;;;;;;;;;5.33;5.00;;;;;32.70;33.12;101566.72;5099954;27;45456;-73
2023/08/22 07:57:11;;;;;;;;;4.00;4.00;;;;;33.00;31.10;101568.72;5103783;27;45453;-73
2023/08/22 07:59:37;;;;;;;;;4.00;4.00;;;;;33.20;30.96;101571.50;5105865;27;46562;-73
2023/08/22 08:02:04;;;;;;;;;4.00;4.00;;;;;33.53;30.51;101581.16;5099471;27;45868;-70
2023/08/22 08:04:30;;;;;;;;;3.00;3.00;;;;;33.91;30.05;101590.78;5099788;27;45251;-73
2023/08/22 08:06:56;;;;;;;;;3.67;2.33;;;;;34.16;29.44;101576.91;5100361;27;45523;-73
2023/08/22 08:09:21;;;;;;;;;4.00;2.67;;;;;34.53;29.30;101597.75;5099264;27;46618;-72
2023/08/22 08:11:47;;;;;;;;;3.00;3.00;;;;;34.72;29.13;101582.19;5099712;27;45260;-72
2023/08/22 08:14:12;;;;;;;;;3.67;3.67;;;;;35.01;29.03;101595.28;5099354;27;45191;-72
2023/08/22 08:16:38;;;;;;;;;4.00;4.00;;;;;35.08;28.24;101590.28;5097117;27;45628;-73
2023/08/22 08:19:04;;;;;;;;;4.00;4.00;;;;;35.17;27.94;101580.25;5097954;27;48616;-72
2023/08/22 08:21:29;;;;;;;;;3.33;3.00;;;;;35.42;27.99;101581.16;5099377;27;45476;-72
2023/08/22 08:23:55;;;;;;;;;3.00;3.00;;;;;35.75;27.57;101593.28;5099648;27;45743;-73
2023/08/22 08:26:20;;;;;;;;;5.00;3.00;;;;;35.79;26.60;101577.75;5099925;27;45425;-73
2023/08/22 08:28:46;;;;;;;;;3.33;3.33;;;;;35.97;26.61;101591.69;5098897;27;58144;-74
2023/08/22 08:31:11;;;;;;;;;4.67;3.67;;;;;36.18;27.31;101595.03;5097561;27;45296;-72
2023/08/22 08:33:37;;;;;;;;;3.00;3.00;;;;;35.83;25.71;101524.31;5097898;27;45466;-73
2023/08/22 08:36:03;;;;;;;;;3.67;3.67;;;;;36.13;26.95;101578.50;5099401;27;45407;-72
2023/08/22 08:38:29;;;;;;;;;3.00;3.00;;;;;36.34;26.44;101554.16;5098931;27;45919;-73
2023/08/22 08:40:59;;;;;;;;;4.33;4.33;;;;;36.79;25.58;101574.06;5099020;27;45414;-71
2023/08/22 08:43:25;;;;;;;;;5.33;5.33;;;;;36.88;24.90;101572.28;5104696;27;45338;-73
2023/08/22 08:45:51;;;;;;;;;4.33;3.00;;;;;37.04;24.83;101556.19;5117822;27;45469;-74
2023/08/22 08:48:21;;;;;;;;;3.67;2.33;;;;;37.50;24.29;101594.28;5097639;27;46573;-71
2023/08/22 08:50:46;;;;;;;;;4.33;3.33;;;;;36.98;24.12;101555.47;5101071;27;45736;-72
2023/08/22 08:53:12;;;;;;;;;2.00;2.00;;;;;37.33;25.07;101595.69;5108277;27;45351;-70
2023/08/22 08:55:40;;;;;;;;;4.00;3.00;;;;;37.36;24.94;101544.31;5118531;27;45482;-72
2023/08/22 08:58:07;;;;;;;;;3.00;1.00;;;;;37.88;24.39;101575.56;5119259;27;46212;-73
2023/08/22 09:00:33;;;;;;;;;2.67;2.67;;;;;38.14;23.79;101573.09;5119170;27;45546;-73
2023/08/22 09:02:58;;;;;;;;;3.67;2.67;;;;;38.29;23.33;101586.69;5135032;27;45605;-73
2023/08/22 09:05:25;;;;;;;;;3.67;3.00;;;;;38.33;23.52;101579.38;5119646;27;45355;-72
2023/08/22 09:07:50;;;;;;;;;2.00;2.00;;;;;38.42;23.47;101568.34;5117856;27;48597;-72
2023/08/22 09:10:34;;;;;;;;;4.00;4.00;;;;;38.62;22.61;101542.88;5119036;27;45397;-71
2023/08/22 09:13:03;;;;;;;;;4.00;3.00;;;;;39.38;22.83;101571.63;5119134;27;45231;-73
2023/08/22 09:15:29;;;;;;;;;3.00;3.00;;;;;39.67;21.28;101570.34;5119586;27;45305;-72
2023/08/22 09:17:55;;;;;;;;;2.00;2.00;;;;;39.82;20.63;101558.75;5118560;27;45648;-72
2023/08/22 09:20:20;;;;;;;;;4.00;3.00;;;;;39.56;20.42;101454.84;5117395;27;45259;-71
2023/08/22 09:22:45;;;;;;;;;4.33;2.00;;;;;40.61;20.32;101566.19;5118011;27;45468;-72
2023/08/22 09:25:11;;;;;;;;;2.33;2.00;;;;;41.55;19.44;101561.69;5118905;27;45239;-71
2023/08/22 09:27:37;;;;;;;;;2.33;2.33;;;;;42.26;18.25;101566.66;5118449;27;45770;-73
2023/08/22 09:30:04;;;;;;;;;3.00;2.33;;;;;43.14;17.21;101552.44;5118738;27;45465;-72
2023/08/22 09:32:30;;;;;;;;;3.00;1.67;;;;;43.55;16.78;101554.31;5118573;27;45449;-72
2023/08/22 09:34:58;;;;;;;;;2.00;1.00;;;;;44.36;16.72;101571.38;5119117;27;45280;-73
2023/08/22 09:37:37;;;;;;;;;7.00;5.00;;;;;45.35;15.28;101571.50;5118465;27;45703;-73
2023/08/22 09:40:08;;;;;;;;;2.00;2.00;;;;;45.94;14.23;101522.81;5118571;27;45439;-72
2023/08/22 09:42:39;;;;;;;;;1.67;1.67;;;;;46.56;14.34;101532.25;5102177;27;45435;-71
2023/08/22 09:45:05;;;;;;;;;1.67;1.67;;;;;46.55;12.85;101453.88;5098014;27;46245;-72
2023/08/22 09:47:31;;;;;;;;;1.33;0.33;;;;;47.16;14.38;101565.66;5098721;27;45809;-71
2023/08/22 09:50:05;;;;;;;;;2.00;0.33;;;;;46.62;14.13;101556.09;5096281;27;45576;-72
2023/08/22 09:52:30;;;;;;;;;0.67;0.67;;;;;46.37;14.08;101561.16;5097755;27;45245;-70
2023/08/22 09:54:56;;;;;;;;;0.00;0.00;;;;;46.50;14.49;101545.00;5098132;27;45271;-71
2023/08/22 09:57:25;;;;;;;;;2.67;1.67;;;;;46.53;13.94;101566.75;5097634;27;47466;-70
2023/08/22 09:59:50;;;;;;;;;1.33;1.33;;;;;45.86;13.86;101551.94;5097853;27;45342;-70
2023/08/22 10:02:19;;;;;;;;;0.67;0.67;;;;;45.96;13.93;101557.00;5097556;27;45324;-70
2023/08/22 10:04:44;;;;;;;;;1.33;1.33;;;;;45.48;14.22;101536.53;5098035;27;45414;-71
2023/08/22 10:07:10;;;;;;;;;1.00;0.33;;;;;45.33;14.58;101489.59;5097483;27;45768;-71
2023/08/22 10:09:38;;;;;;;;;2.67;1.00;;;;;45.35;14.93;101554.66;5097522;27;45508;-70
2023/08/22 10:12:07;;;;;;;;;2.33;1.67;;;;;45.44;14.48;101546.03;5097845;27;45372;-71
2023/08/22 10:14:37;;;;;;;;;1.00;0.67;;;;;44.27;15.36;101547.09;5097953;27;45298;-71
2023/08/22 10:17:02;;;;;;;;;2.00;2.00;;;;;43.10;16.18;101534.72;5095517;27;47369;-72
2023/08/22 10:19:30;;;;;;;;;0.00;0.00;;;;;42.58;16.83;101551.13;5097268;27;45369;-72
2023/08/22 10:22:06;;;;;;;;;0.33;0.33;;;;;41.86;17.96;101528.72;5096311;27;45358;-71
2023/08/22 10:24:32;;;;;;;;;2.67;1.00;;;;;41.25;17.87;101544.88;5092996;27;45554;-72
2023/08/22 10:27:04;;;;;;;;;3.00;1.67;;;;;40.08;19.07;101500.41;5097380;27;46582;-71
2023/08/22 10:29:35;;;;;;;;;1.00;1.00;;;;;39.54;19.97;101542.28;5097492;27;45317;-71
2023/08/22 10:32:00;;;;;;;;;1.33;1.33;;;;;38.94;20.39;101545.44;5099272;27;45490;-71
2023/08/22 10:34:34;;;;;;;;;2.00;2.00;;;;;37.98;21.30;101545.63;5117799;27;45194;-72
2023/08/22 10:37:01;;;;;;;;;2.00;2.00;;;;;36.94;22.68;101512.84;5116507;27;46462;-71
2023/08/22 10:39:39;;;;;;;;;2.00;2.00;;;;;36.45;23.56;101543.78;5114942;27;45452;-72
2023/08/22 10:42:06;;;;;;;;;2.67;1.00;;;;;35.48;24.62;101516.41;5117800;27;45348;-71
2023/08/22 10:44:32;;;;;;;;;1.00;1.00;;;;;34.71;25.62;101503.19;5118271;27;45404;-70
2023/08/22 10:47:02;;;;;;;;;2.00;2.00;;;;;34.30;26.50;101501.78;5096803;27;45713;-70
2023/08/22 10:49:29;;;;;;;;;1.67;1.67;;;;;34.12;26.64;101537.19;5097397;27;45373;-71
2023/08/22 10:52:08;;;;;;;;;1.33;1.00;;;;;33.67;26.83;101516.06;5097449;27;45515;-72
2023/08/22 10:55:00;;;;;;;;;2.33;2.33;;;;;33.41;27.43;101533.75;5096196;27;45433;-72
2023/08/22 10:57:27;;;;;;;;;3.00;2.00;;;;;32.98;27.85;101519.41;5095992;27;46161;-72
2023/08/22 11:00:22;;;;;;;;;2.00;2.00;;;;;32.83;28.81;101534.00;5096896;27;45500;-72
2023/08/22 11:02:59;;;;;;;;;1.67;1.67;;;;;32.68;29.05;101531.22;5097111;27;45511;-72
2023/08/22 11:05:26;;;;;;;;;2.00;2.00;;;;;32.46;28.98;101516.84;5097062;27;45540;-73
2023/08/22 11:07:52;;;;;;;;;2.00;2.00;;;;;32.33;29.49;101532.75;5096339;27;46836;-71
2023/08/22 11:10:23;;;;;;;;;2.67;2.67;;;;;31.81;29.74;101494.25;5095427;27;45267;-72
2023/08/22 11:12:50;;;;;;;;;2.00;2.00;;;;;31.87;30.14;101525.41;5096662;27;45362;-73
2023/08/22 11:15:17;;;;;;;;;3.00;3.00;;;;;31.74;30.27;101533.00;5096324;27;45475;-71
2023/08/22 11:17:45;;;;;;;;;2.67;2.67;;;;;31.60;30.32;101518.03;5094963;27;45662;-71
2023/08/22 11:20:12;;;;;;;;;2.00;2.00;;;;;31.36;30.63;101508.53;5096094;27;45470;-72
2023/08/22 11:22:39;;;;;;;;;2.25;2.25;;;;;31.40;30.88;101517.91;5096750;27;45501;-71